Time;durP1;ratioP1;P1;durP2;ratioP2;P2;SDS_P1;SDS_P2;PMS_P1;PMS_P2;Temp;Humidity;BMP_temperature;BMP_pressure;BME280_temperature;BME280_humidity;BME280_pressure;Samples;Min_cycle;Max_cycle;Signal;HPM_P1;HPM_P2
2023/07/04 00:01:09;;;;;;;11.43;2.60;;;11.10;99.90;;;;;;5116788;27;20122;-27
2023/07/04 00:03:36;;;;;;;7.97;1.50;;;11.00;99.90;;;;;;5135423;27;20085;-27
2023/07/04 00:06:02;;;;;;;13.13;3.25;;;10.80;99.90;;;;;;5134677;27;20461;-27
2023/07/04 00:08:29;;;;;;;6.15;1.23;;;10.70;99.90;;;;;;5135316;27;20107;-27
2023/07/04 00:10:58;;;;;;;4.03;1.17;;;10.90;99.90;;;;;;5134750;27;20498;-27
2023/07/04 00:13:25;;;;;;;7.82;1.27;;;10.90;99.90;;;;;;5134763;27;20122;-26
2023/07/04 00:15:52;;;;;;;11.50;1.83;;;10.60;99.90;;;;;;5116587;28;20082;-27
2023/07/04 00:18:20;;;;;;;6.68;1.63;;;10.80;99.90;;;;;;5134340;27;20488;-26
2023/07/04 00:20:47;;;;;;;5.40;1.77;;;10.60;99.90;;;;;;5134934;28;20184;-26
2023/07/04 00:23:13;;;;;;;7.57;1.40;;;10.50;99.90;;;;;;5134599;28;20051;-26
2023/07/04 00:25:39;;;;;;;9.07;1.33;;;10.40;99.90;;;;;;5099695;28;20035;-27
2023/07/04 00:28:05;;;;;;;7.18;1.40;;;10.40;99.90;;;;;;5134234;28;20047;-26
2023/07/04 00:30:33;;;;;;;10.05;1.70;;;10.30;99.90;;;;;;5134938;28;20039;-26
2023/07/04 00:32:59;;;;;;;6.10;1.50;;;10.20;99.90;;;;;;5116211;28;20396;-26
2023/07/04 00:35:26;;;;;;;11.15;1.92;;;10.40;99.90;;;;;;5134435;28;20043;-26
2023/07/04 00:37:51;;;;;;;5.70;1.60;;;9.90;99.90;;;;;;5116335;28;20106;-27
2023/07/04 00:40:17;;;;;;;8.20;1.60;;;9.90;99.90;;;;;;5134450;28;20132;-26
2023/07/04 00:42:45;;;;;;;8.68;1.90;;;9.90;99.90;;;;;;5134926;28;20062;-26
2023/07/04 00:45:21;;;;;;;16.10;1.92;;;9.90;99.90;;;;;;5099968;28;20047;-25
2023/07/04 00:47:59;;;;;;;5.85;1.63;;;9.80;99.90;;;;;;5134111;28;20560;-26
2023/07/04 00:50:31;;;;;;;7.72;1.77;;;10.00;99.90;;;;;;5134974;28;20391;-26
2023/07/04 00:53:02;;;;;;;11.50;2.53;;;10.30;99.90;;;;;;5134394;28;20058;-25
2023/07/04 00:55:30;;;;;;;7.55;2.10;;;10.30;99.90;;;;;;5135702;27;20481;-26
2023/07/04 00:57:56;;;;;;;9.98;2.83;;;10.30;99.90;;;;;;5138317;27;20064;-26
2023/07/04 01:00:23;;;;;;;12.07;2.50;;;9.90;99.90;;;;;;5139141;27;20050;-26
2023/07/04 01:03:21;;;;;;;11.50;2.05;;;10.30;99.90;;;;;;5120583;27;20047;-26
2023/07/04 01:05:56;;;;;;;7.55;2.17;;;10.10;99.90;;;;;;5135558;27;20051;-26
2023/07/04 01:08:32;;;;;;;12.80;2.50;;;10.10;99.90;;;;;;5119787;27;20050;-26
2023/07/04 01:11:02;;;;;;;13.68;2.67;;;10.30;99.90;;;;;;5138193;27;20108;-27
2023/07/04 01:13:35;;;;;;;9.57;2.38;;;10.30;99.90;;;;;;5119918;27;20530;-26
2023/07/04 01:16:06;;;;;;;10.02;2.35;;;10.50;99.90;;;;;;5120682;27;20051;-26
2023/07/04 01:18:32;;;;;;;6.70;2.00;;;10.70;99.90;;;;;;5137969;27;20081;-26
2023/07/04 01:21:00;;;;;;;5.90;2.25;;;10.90;99.90;;;;;;5137889;27;20047;-26
2023/07/04 01:23:31;;;;;;;11.90;2.45;;;10.70;99.90;;;;;;5138724;27;20073;-26
2023/07/04 01:26:40;;;;;;;15.07;2.85;;;11.00;99.90;;;;;;5137800;27;20067;-26
2023/07/04 01:29:08;;;;;;;8.52;2.30;;;10.80;99.90;;;;;;5075240;27;20051;-26
2023/07/04 01:31:35;;;;;;;6.22;3.78;;;11.00;99.90;;;;;;5137580;27;20126;-26
2023/07/04 01:34:05;;;;;;;11.88;3.00;;;10.70;99.90;;;;;;5137742;27;20477;-26
2023/07/04 01:36:37;;;;;;;6.70;2.40;;;10.70;99.90;;;;;;5137527;27;20034;-26
2023/07/04 01:39:04;;;;;;;16.80;4.20;;;10.60;99.90;;;;;;5137599;27;20500;-26
2023/07/04 01:41:30;;;;;;;13.68;3.13;;;10.70;99.90;;;;;;5119440;27;20493;-27
2023/07/04 01:44:05;;;;;;;13.57;2.92;;;10.70;99.90;;;;;;5120176;27;20057;-27
2023/07/04 01:46:32;;;;;;;14.77;3.00;;;10.70;99.90;;;;;;5119954;27;20075;-26
2023/07/04 01:48:58;;;;;;;6.22;2.55;;;10.30;99.90;;;;;;5137358;27;20043;-26
2023/07/04 01:51:42;;;;;;;6.55;2.38;;;10.70;99.90;;;;;;5137632;27;20093;-26
2023/07/04 01:54:10;;;;;;;8.55;2.55;;;10.40;99.90;;;;;;5138153;27;20039;-26
2023/07/04 01:56:41;;;;;;;10.77;2.97;;;10.40;99.90;;;;;;5137693;27;20044;-26
2023/07/04 01:59:07;;;;;;;8.05;3.25;;;10.10;99.90;;;;;;5119494;27;20051;-27
2023/07/04 02:01:33;;;;;;;5.75;2.47;;;10.40;99.90;;;;;;5137167;27;20054;-27
2023/07/04 02:03:58;;;;;;;10.57;2.92;;;10.20;99.90;;;;;;5118740;27;20086;-26
2023/07/04 02:06:24;;;;;;;7.00;2.67;;;10.30;99.90;;;;;;5114141;28;20138;-25
2023/07/04 02:08:52;;;;;;;9.05;3.47;;;10.30;99.90;;;;;;5114934;28;20130;-26
2023/07/04 02:11:18;;;;;;;9.38;2.72;;;9.90;99.90;;;;;;5115246;28;20083;-26
2023/07/04 02:13:43;;;;;;;12.35;4.25;;;10.20;99.90;;;;;;5098934;28;20085;-26
2023/07/04 02:16:09;;;;;;;7.68;3.10;;;10.10;99.90;;;;;;5116781;28;20043;-26
2023/07/04 02:18:35;;;;;;;14.07;3.10;;;10.10;99.90;;;;;;5116483;28;20054;-25
2023/07/04 02:21:01;;;;;;;12.38;3.28;;;9.70;99.90;;;;;;5116400;28;20385;-25
2023/07/04 02:23:26;;;;;;;9.40;3.38;;;9.70;99.90;;;;;;5116165;27;20073;-25
2023/07/04 02:25:55;;;;;;;12.90;3.53;;;9.90;99.90;;;;;;5116076;28;20118;-26
2023/07/04 02:28:21;;;;;;;6.07;3.38;;;9.80;99.90;;;;;;5097810;28;20093;-26
2023/07/04 02:30:58;;;;;;;13.75;3.28;;;10.20;99.90;;;;;;5115884;28;20093;-26
2023/07/04 02:33:25;;;;;;;6.68;3.40;;;10.50;99.90;;;;;;5116508;28;20044;-25
2023/07/04 02:35:51;;;;;;;14.15;3.58;;;10.00;99.90;;;;;;5115816;28;20036;-26
2023/07/04 02:38:17;;;;;;;9.23;3.70;;;10.60;99.90;;;;;;5115831;28;20043;-26
2023/07/04 02:40:47;;;;;;;9.85;3.60;;;10.60;99.90;;;;;;5116623;28;20097;-26
2023/07/04 02:43:17;;;;;;;11.52;3.72;;;10.60;99.90;;;;;;5115724;28;20051;-26
2023/07/04 02:45:43;;;;;;;14.77;4.03;;;10.70;99.90;;;;;;5114523;28;20044;-26
2023/07/04 02:48:10;;;;;;;8.38;3.53;;;10.50;99.90;;;;;;5114695;28;20126;-26
2023/07/04 02:50:35;;;;;;;9.27;3.20;;;10.60;99.90;;;;;;5097374;28;20054;-26
2023/07/04 02:53:04;;;;;;;13.68;4.22;;;10.60;99.90;;;;;;5116059;28;20048;-26
2023/07/04 02:55:34;;;;;;;16.25;4.25;;;11.10;99.90;;;;;;5097453;28;20043;-26
2023/07/04 02:58:00;;;;;;;10.85;3.92;;;10.90;99.90;;;;;;5114279;28;20043;-26
2023/07/04 03:00:25;;;;;;;14.45;3.63;;;11.00;99.90;;;;;;5115394;28;20047;-26
2023/07/04 03:02:51;;;;;;;8.90;3.15;;;11.10;99.90;;;;;;5116153;28;20450;-26
2023/07/04 03:05:17;;;;;;;11.70;3.15;;;11.20;99.90;;;;;;5121263;27;20055;-25
2023/07/04 03:07:43;;;;;;;5.50;2.55;;;11.40;99.90;;;;;;5117560;27;20233;-26
2023/07/04 03:10:13;;;;;;;6.55;2.28;;;11.40;99.90;;;;;;5136301;27;20049;-26
2023/07/04 03:12:39;;;;;;;8.40;2.25;;;11.50;99.90;;;;;;5135776;27;20113;-25
2023/07/04 03:15:06;;;;;;;9.10;2.83;;;11.50;99.90;;;;;;5100335;27;20079;-26
2023/07/04 03:17:32;;;;;;;5.63;2.08;;;11.50;99.90;;;;;;5116971;27;20040;-26
2023/07/04 03:19:58;;;;;;;6.88;1.90;;;11.50;99.90;;;;;;5135999;27;20070;-25
2023/07/04 03:22:24;;;;;;;5.32;2.20;;;11.50;99.90;;;;;;5135522;27;20126;-25
2023/07/04 03:24:49;;;;;;;5.05;2.00;;;11.50;99.90;;;;;;5117431;27;20384;-26
2023/07/04 03:27:15;;;;;;;8.50;1.63;;;11.40;99.90;;;;;;5100717;27;20095;-25
2023/07/04 03:29:41;;;;;;;8.10;1.80;;;11.50;99.90;;;;;;5116797;27;20047;-25
2023/07/04 03:32:09;;;;;;;6.82;2.17;;;11.50;99.90;;;;;;5117016;27;20046;-25
2023/07/04 03:34:34;;;;;;;8.95;1.65;;;11.70;99.90;;;;;;5135278;27;20043;-25
2023/07/04 03:37:00;;;;;;;5.63;1.63;;;11.70;99.90;;;;;;5117504;27;20043;-25
2023/07/04 03:39:26;;;;;;;2.72;1.35;;;11.70;99.90;;;;;;5135779;27;20418;-25
2023/07/04 03:41:51;;;;;;;4.82;1.25;;;11.80;99.90;;;;;;5117684;27;20061;-25
2023/07/04 03:44:17;;;;;;;4.72;1.08;;;12.00;99.90;;;;;;5116922;27;20051;-25
2023/07/04 03:46:43;;;;;;;5.15;1.30;;;12.00;99.90;;;;;;5135071;27;20039;-25
2023/07/04 03:49:09;;;;;;;4.47;0.98;;;12.00;99.90;;;;;;5117528;27;20043;-25
2023/07/04 03:51:34;;;;;;;6.60;1.20;;;11.90;99.90;;;;;;5134981;27;20043;-25
2023/07/04 03:54:00;;;;;;;3.60;1.00;;;11.90;99.90;;;;;;5134979;27;20175;-25
2023/07/04 03:56:26;;;;;;;4.90;1.00;;;11.80;99.90;;;;;;5099978;27;20043;-25
2023/07/04 03:58:51;;;;;;;5.05;1.00;;;11.80;99.90;;;;;;5135173;27;20147;-24
2023/07/04 04:01:19;;;;;;;6.95;1.05;;;11.70;99.90;;;;;;5099919;27;20384;-25
2023/07/04 04:03:45;;;;;;;5.15;1.15;;;11.70;99.90;;;;;;5100096;28;20452;-24
2023/07/04 04:06:13;;;;;;;5.00;1.38;;;11.60;99.90;;;;;;5116299;27;20161;-24
2023/07/04 04:08:41;;;;;;;3.97;1.15;;;11.60;99.90;;;;;;5134785;27;20050;-24
2023/07/04 04:11:07;;;;;;;6.13;1.83;;;11.50;99.90;;;;;;5116680;28;20484;-24
2023/07/04 04:13:33;;;;;;;6.18;1.13;;;11.50;99.90;;;;;;5099791;27;20166;-24
2023/07/04 04:15:58;;;;;;;4.13;1.10;;;11.40;99.90;;;;;;5134651;27;20050;-24
2023/07/04 04:18:24;;;;;;;4.38;1.10;;;11.40;99.90;;;;;;5116661;27;20065;-24
2023/07/04 04:20:50;;;;;;;5.10;1.48;;;11.40;99.90;;;;;;5134605;28;20066;-24
2023/07/04 04:23:17;;;;;;;4.57;1.30;;;11.50;99.90;;;;;;5135135;28;20174;-24
2023/07/04 04:25:48;;;;;;;4.28;1.20;;;11.50;99.90;;;;;;5082749;28;20039;-24
2023/07/04 04:28:14;;;;;;;4.00;1.95;;;11.50;99.90;;;;;;5134646;28;20043;-24
2023/07/04 04:30:40;;;;;;;3.28;1.30;;;11.60;99.90;;;;;;5101835;27;20047;-24
2023/07/04 04:33:07;;;;;;;5.22;1.25;;;11.60;99.90;;;;;;5138772;27;20043;-24
2023/07/04 04:35:33;;;;;;;5.95;1.23;;;11.70;99.90;;;;;;5138743;27;20051;-24
2023/07/04 04:37:59;;;;;;;4.45;1.23;;;11.70;99.90;;;;;;5139036;27;20436;-24
2023/07/04 04:40:25;;;;;;;3.70;1.00;;;11.80;99.90;;;;;;5138360;27;20087;-24
2023/07/04 04:42:53;;;;;;;5.65;1.20;;;11.80;99.90;;;;;;5103873;27;20126;-24
2023/07/04 04:45:25;;;;;;;3.63;0.82;;;11.80;99.90;;;;;;5121051;27;20385;-23
2023/07/04 04:47:54;;;;;;;3.40;1.13;;;11.90;99.90;;;;;;5120275;27;20048;-23
2023/07/04 04:50:26;;;;;;;2.92;0.65;;;11.90;99.90;;;;;;5138450;27;20047;-23
2023/07/04 04:52:52;;;;;;;5.68;0.88;;;12.00;99.90;;;;;;5138486;27;20481;-23
2023/07/04 04:55:21;;;;;;;3.90;1.10;;;12.10;99.90;;;;;;5138276;27;20047;-23
2023/07/04 04:57:46;;;;;;;4.75;0.85;;;12.20;99.90;;;;;;5120285;27;20080;-23
2023/07/04 05:00:12;;;;;;;3.40;0.80;;;12.20;99.90;;;;;;5138332;27;20082;-23
2023/07/04 05:02:38;;;;;;;8.02;1.92;;;12.30;99.90;;;;;;5119902;27;20049;-23
2023/07/04 05:05:04;;;;;;;3.42;1.50;;;12.30;99.90;;;;;;5138805;27;20055;-23
2023/07/04 05:07:30;;;;;;;7.10;1.23;;;12.40;99.90;;;;;;5138442;27;20456;-23
2023/07/04 05:10:00;;;;;;;4.75;1.40;;;12.50;99.90;;;;;;5138090;27;20049;-23
2023/07/04 05:12:28;;;;;;;2.97;1.00;;;12.50;99.90;;;;;;5138090;27;20084;-23
2023/07/04 05:14:54;;;;;;;4.35;1.38;;;12.60;99.90;;;;;;5102632;27;20506;-23
2023/07/04 05:17:23;;;;;;;3.58;1.10;;;12.60;99.90;;;;;;5138560;27;20043;-23
2023/07/04 05:19:49;;;;;;;4.50;1.25;;;12.70;99.90;;;;;;5119838;27;20047;-23
2023/07/04 05:22:16;;;;;;;4.95;1.40;;;12.90;99.90;;;;;;5138194;27;20381;-23
2023/07/04 05:24:42;;;;;;;3.92;1.20;;;13.10;99.90;;;;;;5137907;27;20497;-23
2023/07/04 05:27:07;;;;;;;5.47;1.25;;;13.10;99.90;;;;;;5138330;27;20126;-23
2023/07/04 05:29:33;;;;;;;6.53;1.77;;;13.10;99.90;;;;;;5102663;27;20047;-23
2023/07/04 05:31:59;;;;;;;5.38;1.70;;;13.10;99.90;;;;;;5137612;27;20058;-23
2023/07/04 05:34:25;;;;;;;5.60;1.55;;;13.10;99.90;;;;;;5120373;27;20039;-23
2023/07/04 05:36:51;;;;;;;4.80;1.65;;;13.10;99.90;;;;;;5137535;27;20039;-23
2023/07/04 05:39:17;;;;;;;6.50;1.75;;;13.80;99.90;;;;;;5137535;27;20157;-23
2023/07/04 05:41:42;;;;;;;5.05;1.67;;;14.60;99.90;;;;;;5119937;27;20084;-23
2023/07/04 05:44:09;;;;;;;4.85;1.70;;;15.00;99.90;;;;;;5137777;27;20050;-23
2023/07/04 05:46:36;;;;;;;9.95;1.90;;;15.00;99.90;;;;;;5119217;27;20043;-23
2023/07/04 05:49:02;;;;;;;6.60;1.48;;;14.90;99.90;;;;;;5137089;27;20039;-23
2023/07/04 05:51:29;;;;;;;4.63;1.40;;;14.80;99.90;;;;;;5118933;27;20059;-23
2023/07/04 05:53:55;;;;;;;7.38;1.42;;;15.00;99.90;;;;;;5137290;27;20046;-23
2023/07/04 05:56:25;;;;;;;4.47;1.00;;;15.20;99.90;;;;;;5136868;27;20477;-22
2023/07/04 05:58:53;;;;;;;5.00;1.13;;;15.30;99.90;;;;;;5101796;27;20043;-22
2023/07/04 06:01:27;;;;;;;6.75;1.63;;;15.40;99.90;;;;;;5137703;27;20392;-22
2023/07/04 06:03:54;;;;;;;4.47;1.20;;;15.80;99.90;;;;;;5102274;27;20086;-23
2023/07/04 06:06:25;;;;;;;4.82;1.27;;;16.10;99.90;;;;;;5137103;27;20126;-22
2023/07/04 06:08:52;;;;;;;8.65;1.38;;;16.40;99.90;;;;;;5137373;27;20082;-22
2023/07/04 06:11:22;;;;;;;4.53;1.48;;;16.40;60.90;;;;;;5118649;27;20078;-23
2023/07/04 06:13:48;;;;;;;8.57;1.55;;;16.10;24.00;;;;;;5137198;27;20043;-22
2023/07/04 06:16:14;;;;;;;5.50;1.23;;;16.10;99.90;;;;;;5136803;27;20126;-23
2023/07/04 06:18:40;;;;;;;7.15;1.23;;;16.00;99.90;;;;;;5136792;27;20201;-23
2023/07/04 06:21:10;;;;;;;7.68;1.27;;;15.90;99.90;;;;;;5136770;27;20412;-22
2023/07/04 06:23:36;;;;;;;5.20;1.05;;;16.10;1.00;;;;;;5118557;27;20055;-22
2023/07/04 06:26:02;;;;;;;3.75;1.08;;;15.90;58.10;;;;;;5136675;27;20043;-22
2023/07/04 06:28:29;;;;;;;7.45;1.80;;;15.70;99.90;;;;;;5119325;27;20103;-22
2023/07/04 06:30:54;;;;;;;6.18;1.13;;;15.70;99.90;;;;;;5118662;27;20134;-22
2023/07/04 06:33:20;;;;;;;4.45;1.58;;;15.80;99.90;;;;;;5136513;27;20079;-22
2023/07/04 06:35:46;;;;;;;7.13;1.13;;;16.50;99.90;;;;;;5136457;27;20050;-22
2023/07/04 06:38:12;;;;;;;8.00;1.42;;;17.00;1.00;;;;;;5136549;27;20115;-22
2023/07/04 06:40:38;;;;;;;5.07;0.95;;;17.10;99.90;;;;;;5118196;27;20051;-22
2023/07/04 06:43:05;;;;;;;8.27;0.90;;;16.50;99.90;;;;;;5135993;27;20093;-22
2023/07/04 06:45:36;;;;;;;5.80;1.27;;;16.20;99.90;;;;;;5136331;27;20051;-22
2023/07/04 06:48:02;;;;;;;6.05;0.73;;;16.70;99.90;;;;;;5136303;27;20054;-22
2023/07/04 06:50:28;;;;;;;5.75;0.88;;;16.70;1.00;;;;;;5117949;27;20047;-22
2023/07/04 06:52:54;;;;;;;6.43;1.52;;;16.50;99.90;;;;;;5136004;27;20480;-22
2023/07/04 06:55:21;;;;;;;4.90;1.05;;;16.40;1.00;;;;;;5135730;27;20378;-22
2023/07/04 06:57:46;;;;;;;3.25;1.08;;;16.30;99.90;;;;;;5136376;27;20058;-22
2023/07/04 07:00:12;;;;;;;3.25;0.65;;;16.70;1.00;;;;;;5101290;27;20047;-22
2023/07/04 07:02:38;;;;;;;5.15;1.25;;;17.40;99.90;;;;;;5135939;27;20050;-22
2023/07/04 07:05:05;;;;;;;6.65;1.20;;;17.50;99.90;;;;;;5135809;27;20059;-22
2023/07/04 07:07:31;;;;;;;5.60;1.00;;;17.80;99.90;;;;;;5135852;27;20050;-22
2023/07/04 07:09:57;;;;;;;3.25;0.73;;;18.00;99.90;;;;;;5135825;27;20047;-21
2023/07/04 07:12:22;;;;;;;3.50;0.80;;;17.80;99.90;;;;;;5136079;27;20074;-21
2023/07/04 07:14:50;;;;;;;3.40;0.90;;;18.10;99.90;;;;;;5135686;27;20043;-22
2023/07/04 07:17:16;;;;;;;4.32;0.80;;;18.10;1.00;;;;;;5136445;27;20049;-22
2023/07/04 07:19:42;;;;;;;4.80;1.05;;;18.20;1.00;;;;;;5135653;27;20451;-22
2023/07/04 07:22:08;;;;;;;3.50;0.80;;;17.70;1.00;;;;;;5117388;27;20122;-22
2023/07/04 07:24:33;;;;;;;5.78;0.90;;;17.60;1.00;;;;;;5117266;27;20047;-22
2023/07/04 07:26:59;;;;;;;3.38;0.70;;;17.50;3.40;;;;;;5135440;27;20062;-22
2023/07/04 07:29:28;;;;;;;3.33;0.60;;;17.50;1.00;;;;;;5135508;27;20473;-21
2023/07/04 07:31:54;;;;;;;4.70;1.27;;;17.10;1.00;;;;;;5117111;27;20054;-21
2023/07/04 07:34:20;;;;;;;4.35;0.82;;;17.30;99.90;;;;;;5135676;27;20500;-22
2023/07/04 07:36:46;;;;;;;6.45;0.90;;;17.10;1.00;;;;;;5135177;27;20126;-22
2023/07/04 07:39:15;;;;;;;1.60;0.40;;;16.80;99.90;;;;;;5135187;27;20047;-22
2023/07/04 07:41:46;;;;;;;5.88;1.38;;;16.70;99.90;;;;;;5135178;27;20043;-22
2023/07/04 07:44:13;;;;;;;3.90;1.10;;;16.70;99.90;;;;;;5117116;27;20055;-22
2023/07/04 07:46:39;;;;;;;5.43;1.15;;;16.70;99.90;;;;;;5116771;27;20526;-21
2023/07/04 07:49:05;;;;;;;8.18;0.77;;;16.80;99.90;;;;;;5135094;27;20043;-21
2023/07/04 07:51:34;;;;;;;5.47;0.80;;;16.90;99.90;;;;;;5135081;27;20043;-21
2023/07/04 07:54:01;;;;;;;5.45;1.30;;;16.90;99.90;;;;;;5100760;27;20440;-21
2023/07/04 07:56:32;;;;;;;4.43;0.98;;;16.90;99.90;;;;;;5135547;27;20054;-21
2023/07/04 07:58:59;;;;;;;3.03;0.65;;;17.10;83.10;;;;;;5134999;27;20047;-21
2023/07/04 08:01:31;;;;;;;4.10;1.17;;;17.30;99.90;;;;;;5135404;27;20130;-21
2023/07/04 08:03:59;;;;;;;3.20;0.40;;;17.10;99.90;;;;;;5117897;27;20358;-21
2023/07/04 08:06:33;;;;;;;4.00;0.63;;;17.00;1.00;;;;;;5116188;27;20062;-21
2023/07/04 08:09:01;;;;;;;3.83;0.82;;;17.00;53.80;;;;;;5134850;27;20089;-22
2023/07/04 08:11:28;;;;;;;6.88;1.17;;;17.20;1.00;;;;;;5116428;27;20047;-22
2023/07/04 08:13:55;;;;;;;7.00;1.35;;;17.30;99.90;;;;;;5134808;27;20071;-22
2023/07/04 08:16:45;;;;;;;5.20;0.90;;;17.40;99.90;;;;;;5115996;27;20488;-21
2023/07/04 08:19:12;;;;;;;2.83;0.95;;;17.20;99.90;;;;;;5135316;27;20423;-21
2023/07/04 08:21:40;;;;;;;4.57;0.80;;;16.80;99.90;;;;;;5134950;27;20096;-22
2023/07/04 08:24:10;;;;;;;4.05;1.25;;;16.70;99.90;;;;;;5116513;28;20044;-22
2023/07/04 08:26:38;;;;;;;7.25;1.10;;;16.70;99.90;;;;;;5117042;28;20051;-22
2023/07/04 08:29:08;;;;;;;3.90;0.82;;;16.90;99.90;;;;;;5134546;28;20054;-21
2023/07/04 08:31:34;;;;;;;3.00;0.70;;;17.40;1.00;;;;;;5134528;28;20085;-21
2023/07/04 08:34:00;;;;;;;3.55;0.70;;;18.00;1.00;;;;;;5134516;28;20039;-21
2023/07/04 08:36:25;;;;;;;3.30;0.85;;;17.90;1.00;;;;;;5100109;28;20051;-22
2023/07/04 08:38:54;;;;;;;6.72;1.10;;;17.30;99.90;;;;;;5135018;28;20043;-22
2023/07/04 08:41:39;;;;;;;4.07;1.00;;;17.00;99.90;;;;;;5116581;28;20043;-21
2023/07/04 08:44:21;;;;;;;9.23;1.23;;;17.20;99.90;;;;;;5134999;28;20059;-22
2023/07/04 08:46:55;;;;;;;6.18;1.10;;;17.10;3.80;;;;;;5134422;28;20068;-21
2023/07/04 08:49:40;;;;;;;5.28;1.10;;;17.20;99.90;;;;;;5135033;28;20433;-21
2023/07/04 08:52:17;;;;;;;8.20;1.08;;;17.90;99.90;;;;;;5134428;28;20541;-21
2023/07/04 08:54:44;;;;;;;8.57;1.52;;;18.80;1.00;;;;;;5134694;28;20050;-21
2023/07/04 08:58:00;;;;;;;5.55;1.02;;;19.40;99.90;;;;;;5134343;28;20040;-22
2023/07/04 09:00:30;;;;;;;13.38;2.50;;;19.60;99.90;;;;;;5051251;28;20049;-22
2023/07/04 09:03:18;;;;;;;11.07;2.05;;;19.20;25.80;;;;;;5127999;28;20047;-21
2023/07/04 09:05:56;;;;;;;7.13;1.80;;;18.50;20.30;;;;;;5115869;28;20055;-21
2023/07/04 09:08:43;;;;;;;12.25;2.53;;;17.80;1.00;;;;;;5134955;28;20094;-21
2023/07/04 09:11:11;;;;;;;4.30;1.38;;;17.20;99.90;;;;;;5134905;28;20066;-21
2023/07/04 09:13:38;;;;;;;8.15;1.90;;;16.90;99.90;;;;;;5115785;28;20519;-21
2023/07/04 09:16:17;;;;;;;7.68;1.52;;;16.80;1.00;;;;;;5134783;27;20054;-21
2023/07/04 09:19:02;;;;;;;5.78;1.50;;;16.20;1.00;;;;;;5138900;27;20478;-21
2023/07/04 09:21:29;;;;;;;9.10;2.08;;;15.90;1.00;;;;;;5120533;27;20046;-21
2023/07/04 09:24:01;;;;;;;9.00;2.55;;;15.80;1.00;;;;;;5120371;27;20365;-21
2023/07/04 09:26:42;;;;;;;7.15;1.38;;;15.80;1.00;;;;;;5137911;27;20083;-21
2023/07/04 09:29:13;;;;;;;6.68;1.73;;;15.90;99.90;;;;;;5137862;27;20047;-21
2023/07/04 09:31:41;;;;;;;6.90;1.60;;;16.20;99.90;;;;;;5138283;27;20051;-21
2023/07/04 09:34:21;;;;;;;6.72;1.67;;;17.10;99.90;;;;;;5137973;27;20397;-22
2023/07/04 09:36:53;;;;;;;12.07;2.30;;;17.60;99.90;;;;;;5137682;27;20142;-21
2023/07/04 09:39:19;;;;;;;8.45;1.55;;;17.20;99.90;;;;;;5137664;27;20126;-22
2023/07/04 09:41:56;;;;;;;7.85;1.27;;;16.80;99.90;;;;;;5120324;27;20130;-22
2023/07/04 09:44:36;;;;;;;7.75;1.60;;;16.70;1.00;;;;;;5137549;27;20043;-22
2023/07/04 09:47:03;;;;;;;6.82;1.15;;;17.50;1.00;;;;;;5137749;27;20437;-22
2023/07/04 09:49:36;;;;;;;4.13;1.20;;;18.30;99.90;;;;;;5137364;27;20090;-21
2023/07/04 09:52:03;;;;;;;6.18;1.17;;;18.70;99.90;;;;;;5119246;27;20046;-22
2023/07/04 09:54:34;;;;;;;4.20;1.40;;;18.70;1.00;;;;;;5137855;27;20075;-22
2023/07/04 09:57:23;;;;;;;3.63;1.00;;;18.20;99.90;;;;;;5137103;27;20096;-22
2023/07/04 09:59:53;;;;;;;4.22;1.10;;;17.80;99.90;;;;;;5137282;27;20534;-22
2023/07/04 10:02:29;;;;;;;5.72;0.88;;;17.50;99.90;;;;;;5103149;27;20420;-22
2023/07/04 10:04:55;;;;;;;5.25;1.52;;;16.90;99.90;;;;;;5137371;27;20123;-22
2023/07/04 10:07:25;;;;;;;5.95;1.23;;;16.80;1.00;;;;;;5118792;27;20047;-22
2023/07/04 10:09:55;;;;;;;8.05;1.67;;;17.60;1.00;;;;;;5137007;27;20043;-22
2023/07/04 10:12:23;;;;;;;4.10;0.90;;;18.10;99.90;;;;;;5136990;27;20043;-22
2023/07/04 10:14:54;;;;;;;5.07;1.15;;;18.50;99.90;;;;;;5137206;27;20101;-22
2023/07/04 10:17:39;;;;;;;5.78;0.80;;;18.40;10.30;;;;;;5102484;27;20104;-22
2023/07/04 10:20:13;;;;;;;6.28;1.40;;;18.00;99.90;;;;;;5137426;27;20047;-22
2023/07/04 10:22:46;;;;;;;4.43;0.85;;;18.50;1.00;;;;;;5136764;27;20099;-21
2023/07/04 10:25:19;;;;;;;5.22;1.77;;;18.20;99.90;;;;;;5118668;27;20491;-22
2023/07/04 10:27:53;;;;;;;8.50;1.27;;;18.00;99.90;;;;;;5136139;27;20050;-22
2023/07/04 10:30:29;;;;;;;3.97;1.10;;;17.60;99.40;;;;;;5118832;27;20429;-22
2023/07/04 10:33:01;;;;;;;2.80;0.77;;;17.40;99.90;;;;;;5136514;27;20050;-22
2023/07/04 10:35:31;;;;;;;5.53;0.82;;;17.20;99.90;;;;;;5136582;27;20082;-22
2023/07/04 10:38:07;;;;;;;7.22;1.00;;;17.40;99.90;;;;;;5136741;27;20118;-22
2023/07/04 10:40:37;;;;;;;4.95;1.00;;;17.30;99.90;;;;;;5136508;27;20043;-23
2023/07/04 10:43:13;;;;;;;7.35;1.20;;;17.20;1.00;;;;;;5118349;27;20122;-22
2023/07/04 10:45:43;;;;;;;6.05;1.77;;;17.70;99.90;;;;;;5136610;27;20049;-22
2023/07/04 10:48:14;;;;;;;1.33;0.63;;;18.20;99.90;;;;;;5136319;27;20051;-22
2023/07/04 10:50:50;;;;;;;4.22;0.95;;;17.70;99.90;;;;;;5136351;27;20426;-22
2023/07/04 10:53:18;;;;;;;6.70;1.42;;;17.90;99.90;;;;;;5136143;27;20051;-21
2023/07/04 10:55:54;;;;;;;4.53;0.80;;;18.80;99.90;;;;;;5136067;27;20121;-22
2023/07/04 10:58:23;;;;;;;5.82;0.75;;;19.10;99.90;;;;;;5136124;27;20515;-22
2023/07/04 11:01:03;;;;;;;6.45;1.23;;;18.80;1.00;;;;;;5136297;27;20050;-22
2023/07/04 11:03:44;;;;;;;6.43;1.52;;;18.70;46.00;;;;;;5136045;27;20469;-22
2023/07/04 11:06:18;;;;;;;5.40;1.48;;;18.30;1.00;;;;;;5135656;27;20488;-22
2023/07/04 11:08:45;;;;;;;5.63;1.20;;;17.90;99.90;;;;;;5135939;27;20125;-22
2023/07/04 11:11:15;;;;;;;8.10;1.13;;;17.60;99.90;;;;;;5135877;27;20050;-22
2023/07/04 11:13:55;;;;;;;8.18;1.77;;;17.30;99.90;;;;;;5135787;27;20039;-22
2023/07/04 11:16:27;;;;;;;6.10;0.85;;;17.70;99.90;;;;;;5135570;27;20088;-22
2023/07/04 11:19:06;;;;;;;6.32;1.08;;;18.20;63.70;;;;;;5136310;27;20043;-22
2023/07/04 11:21:35;;;;;;;5.68;1.10;;;18.40;87.70;;;;;;5135678;27;20043;-22
2023/07/04 11:24:16;;;;;;;7.78;1.10;;;18.10;99.90;;;;;;5136381;27;20046;-22
2023/07/04 11:26:49;;;;;;;9.65;1.83;;;17.90;1.00;;;;;;5117716;27;20054;-22
2023/07/04 11:29:20;;;;;;;5.75;1.23;;;17.80;99.90;;;;;;5135514;27;20043;-22
2023/07/04 11:32:04;;;;;;;5.68;1.10;;;18.10;1.00;;;;;;5135349;27;20058;-22
2023/07/04 11:35:02;;;;;;;3.80;1.17;;;18.50;99.90;;;;;;5118107;27;20092;-22
2023/07/04 11:37:28;;;;;;;5.82;1.30;;;19.50;99.90;;;;;;5106906;27;20105;-22
2023/07/04 11:40:00;;;;;;;10.98;1.92;;;19.70;99.90;;;;;;5134612;27;20504;-22
2023/07/04 11:42:44;;;;;;;6.50;1.33;;;18.70;99.90;;;;;;5100395;27;20082;-22
2023/07/04 11:45:16;;;;;;;6.75;1.10;;;18.00;1.00;;;;;;5135231;27;20035;-22
2023/07/04 11:47:57;;;;;;;6.75;1.50;;;17.50;1.00;;;;;;5117338;27;20046;-22
2023/07/04 11:50:47;;;;;;;6.53;1.20;;;17.90;99.90;;;;;;5116855;27;20051;-23
2023/07/04 11:53:32;;;;;;;8.93;2.45;;;18.60;99.90;;;;;;5135265;27;20449;-22
2023/07/04 11:56:24;;;;;;;6.07;1.23;;;19.60;99.90;;;;;;5116724;27;20119;-23
2023/07/04 11:59:11;;;;;;;8.15;2.03;;;20.10;99.90;;;;;;5135608;27;20047;-23
2023/07/04 12:02:04;;;;;;;7.63;1.90;;;19.90;99.90;;;;;;5116682;27;20089;-22
2023/07/04 12:04:33;;;;;;;8.15;1.50;;;19.40;99.90;;;;;;5135796;27;20073;-22
2023/07/04 12:07:07;;;;;;;3.42;0.98;;;19.20;55.50;;;;;;5134631;27;20051;-22
2023/07/04 12:09:45;;;;;;;5.85;1.02;;;19.00;99.90;;;;;;5135445;27;20051;-22
2023/07/04 12:12:20;;;;;;;5.75;1.33;;;19.30;99.90;;;;;;5135172;27;20563;-22
2023/07/04 12:14:50;;;;;;;6.00;1.35;;;19.60;1.00;;;;;;5134759;27;20045;-22
2023/07/04 12:17:17;;;;;;;9.77;2.15;;;19.10;1.00;;;;;;5116325;27;20426;-23
2023/07/04 12:19:42;;;;;;;8.95;1.20;;;18.70;99.90;;;;;;5065923;28;20488;-22
2023/07/04 12:22:17;;;;;;;5.72;1.05;;;19.50;99.90;;;;;;5116354;28;20142;-23
2023/07/04 12:24:49;;;;;;;5.35;1.48;;;20.00;1.00;;;;;;5135211;28;20047;-23
2023/07/04 12:27:16;;;;;;;7.03;1.30;;;20.10;1.00;;;;;;5134437;28;20522;-22
2023/07/04 12:29:46;;;;;;;3.55;0.90;;;20.20;1.00;;;;;;5135129;28;20280;-22
2023/07/04 12:32:20;;;;;;;5.10;1.00;;;20.20;1.00;;;;;;5115975;28;20457;-23
2023/07/04 12:34:46;;;;;;;3.10;0.75;;;20.20;1.00;;;;;;5117406;28;20055;-23
2023/07/04 12:37:16;;;;;;;4.00;1.00;;;20.20;1.00;;;;;;5116202;28;20062;-23
2023/07/04 12:39:48;;;;;;;4.93;1.17;;;20.50;1.00;;;;;;5135357;28;20055;-23
2023/07/04 12:42:29;;;;;;;4.28;1.10;;;20.60;99.90;;;;;;5134518;28;20043;-23
2023/07/04 12:44:55;;;;;;;3.58;0.85;;;20.80;99.90;;;;;;5135173;28;20146;-23
2023/07/04 12:47:35;;;;;;;3.65;1.00;;;20.20;99.90;;;;;;5135060;28;20054;-23
2023/07/04 12:50:01;;;;;;;4.32;0.77;;;20.10;99.90;;;;;;5116839;27;20047;-23
2023/07/04 12:52:37;;;;;;;5.32;1.33;;;19.40;99.90;;;;;;5138070;27;20046;-23
2023/07/04 12:55:06;;;;;;;5.13;1.13;;;19.30;1.00;;;;;;5138780;27;20515;-23
2023/07/04 12:57:33;;;;;;;10.48;1.38;;;19.60;99.90;;;;;;5120059;27;20043;-23
2023/07/04 13:00:19;;;;;;;6.82;1.35;;;19.60;1.00;;;;;;5138418;27;20051;-23
2023/07/04 13:02:49;;;;;;;7.57;1.20;;;19.40;1.00;;;;;;5120490;27;20047;-23